createdAt,value
2024-02-29T00:03:10.408Z,-2.00
2024-02-29T00:08:32.887Z,-2.00
2024-02-29T00:13:55.047Z,-2.10
2024-02-29T00:19:16.986Z,-2.10
2024-02-29T00:24:38.866Z,-2.00
2024-02-29T00:30:01.268Z,-2.00
2024-02-29T00:35:24.059Z,-2.00
2024-02-29T00:40:46.384Z,-2.10
2024-02-29T00:46:08.747Z,-2.10
2024-02-29T00:51:34.135Z,-2.10
2024-02-29T00:56:58.916Z,-2.10
2024-02-29T01:02:20.940Z,-2.20
2024-02-29T01:07:43.367Z,-2.20
2024-02-29T01:13:09.025Z,-2.20
2024-02-29T01:18:37.465Z,-2.20
2024-02-29T01:24:04.705Z,-2.20
2024-02-29T01:29:27.091Z,-2.30
2024-02-29T01:34:49.675Z,-2.20
2024-02-29T01:40:12.169Z,-2.20
2024-02-29T01:45:34.460Z,-2.20
2024-02-29T01:51:03.165Z,-2.30
2024-02-29T01:56:25.782Z,-2.30
2024-02-29T02:01:48.220Z,-2.30
2024-02-29T02:07:13.524Z,-2.30
2024-02-29T02:12:35.988Z,-2.30
2024-02-29T02:17:58.089Z,-2.30
2024-02-29T02:23:26.130Z,-2.30
2024-02-29T02:28:48.425Z,-2.20
2024-02-29T02:34:10.823Z,-2.10
2024-02-29T02:39:32.899Z,-2.10
2024-02-29T02:44:54.947Z,-2.00
2024-02-29T02:50:16.944Z,-2.10
2024-02-29T02:55:38.977Z,-2.00
2024-02-29T03:01:02.286Z,-2.00
2024-02-29T03:06:25.375Z,-1.90
2024-02-29T03:11:51.143Z,-1.80
2024-02-29T03:17:16.102Z,-1.70
2024-02-29T03:22:47.819Z,-1.60
2024-02-29T03:28:15.493Z,-1.50
2024-02-29T03:33:37.656Z,-1.50
2024-02-29T03:38:59.724Z,-1.40
2024-02-29T03:44:21.918Z,-1.40
2024-02-29T03:49:43.982Z,-1.50
2024-02-29T03:55:06.906Z,-1.60
2024-02-29T04:00:29.533Z,-1.60
2024-02-29T04:05:51.674Z,-1.60
2024-02-29T04:11:15.869Z,-1.70
2024-02-29T04:16:41.613Z,-1.80
2024-02-29T04:22:08.844Z,-1.90
2024-02-29T04:27:33.140Z,-2.00
2024-02-29T04:32:55.794Z,-2.00
2024-02-29T04:38:17.680Z,-2.10
2024-02-29T04:43:41.088Z,-2.20
2024-02-29T04:49:03.328Z,-2.30
2024-02-29T04:54:25.301Z,-2.40
2024-02-29T04:59:47.611Z,-2.40
2024-02-29T05:05:14.665Z,-2.50
2024-02-29T05:10:37.296Z,-2.50
2024-02-29T05:15:59.654Z,-2.50
2024-02-29T05:21:21.922Z,-2.50
2024-02-29T05:26:47.347Z,-2.60
2024-02-29T05:32:15.754Z,-2.70
2024-02-29T05:37:44.287Z,-2.70
2024-02-29T05:43:06.763Z,-2.80
2024-02-29T05:48:36.756Z,-2.80
2024-02-29T05:53:59.384Z,-2.90
2024-02-29T05:59:21.367Z,-3.00
2024-02-29T06:04:43.616Z,-2.90
2024-02-29T06:10:11.829Z,-3.00
2024-02-29T06:15:33.954Z,-3.00
2024-02-29T06:20:56.097Z,-2.90
2024-02-29T06:26:20.277Z,-2.90
2024-02-29T06:31:54.254Z,-2.90
2024-02-29T06:37:18.999Z,-2.90
2024-02-29T06:42:42.547Z,-2.90
2024-02-29T06:48:05.506Z,-2.80
2024-02-29T06:53:29.720Z,-2.70
2024-02-29T06:58:52.088Z,-2.70
2024-02-29T07:04:14.148Z,-2.40
2024-02-29T07:09:36.353Z,-2.00
2024-02-29T07:14:58.302Z,-1.70
2024-02-29T07:20:20.629Z,-1.20
2024-02-29T07:25:42.620Z,-0.90
2024-02-29T07:31:07.267Z,-0.50
2024-02-29T07:36:29.305Z,-0.10
2024-02-29T07:41:51.334Z,0.20
2024-02-29T07:47:13.715Z,0.50
2024-02-29T07:52:39.966Z,0.80
2024-02-29T07:58:02.838Z,1.10
2024-02-29T08:03:28.481Z,1.50
2024-02-29T08:08:50.987Z,1.90
2024-02-29T08:14:13.178Z,2.30
2024-02-29T08:19:35.393Z,2.70
2024-02-29T08:25:22.197Z,3.10
2024-02-29T08:30:45.220Z,3.30
2024-02-29T08:36:14.105Z,3.70
2024-02-29T08:41:36.002Z,4.20
2024-02-29T08:47:06.956Z,4.50
2024-02-29T08:52:33.323Z,4.90
2024-02-29T08:57:56.545Z,5.10
2024-02-29T09:03:18.637Z,5.50
2024-02-29T09:08:40.635Z,5.70
2024-02-29T09:14:02.661Z,6.00
2024-02-29T09:19:24.970Z,6.40
2024-02-29T09:24:47.239Z,6.60
2024-02-29T09:30:09.785Z,6.90
2024-02-29T09:35:31.816Z,7.10
2024-02-29T09:41:03.296Z,7.40
2024-02-29T09:46:35.090Z,7.70
2024-02-29T09:52:00.333Z,7.80
2024-02-29T09:57:22.774Z,8.10
2024-02-29T10:02:52.886Z,8.20
2024-02-29T10:08:18.688Z,8.50
2024-02-29T10:13:41.785Z,8.70
2024-02-29T10:19:04.050Z,8.90
2024-02-29T10:24:26.272Z,8.90
2024-02-29T10:29:50.029Z,9.10
2024-02-29T10:35:25.985Z,9.10
2024-02-29T10:40:52.121Z,9.40
2024-02-29T10:46:18.966Z,9.60
2024-02-29T10:51:46.034Z,9.80
2024-02-29T10:57:16.288Z,10.00
2024-02-29T11:02:44.880Z,10.10
2024-02-29T11:08:18.747Z,10.20
2024-02-29T11:13:43.337Z,10.40
2024-02-29T11:19:10.949Z,10.50
2024-02-29T11:24:42.367Z,10.80
2024-02-29T11:30:14.647Z,10.80
2024-02-29T11:35:39.637Z,10.90
2024-02-29T11:41:03.446Z,11.00
2024-02-29T11:46:29.666Z,10.90
2024-02-29T11:51:55.704Z,11.30
2024-02-29T11:57:22.850Z,11.10
2024-02-29T12:02:45.778Z,11.40
2024-02-29T12:08:09.280Z,11.10
2024-02-29T12:13:43.675Z,11.00
2024-02-29T12:19:07.423Z,11.30
2024-02-29T12:24:30.369Z,11.20
2024-02-29T12:29:53.772Z,11.40
2024-02-29T12:35:15.923Z,11.40
2024-02-29T12:40:37.872Z,11.60
2024-02-29T12:46:00.402Z,11.50
2024-02-29T12:51:22.356Z,11.20
2024-02-29T12:56:46.116Z,11.50
2024-02-29T13:02:17.358Z,11.30
2024-02-29T13:07:39.794Z,11.40
2024-02-29T13:13:10.150Z,10.90
2024-02-29T13:18:34.104Z,11.00
2024-02-29T13:23:56.230Z,10.70
2024-02-29T13:29:18.920Z,10.60
2024-02-29T13:34:41.278Z,10.70
2024-02-29T13:40:04.825Z,10.90
2024-02-29T13:45:36.604Z,11.00
2024-02-29T13:51:01.784Z,10.70
2024-02-29T13:56:27.069Z,10.40
2024-02-29T14:01:53.202Z,10.00
2024-02-29T14:07:18.290Z,9.50
2024-02-29T14:12:49.504Z,9.50
2024-02-29T14:18:14.792Z,9.60
2024-02-29T14:23:36.465Z,9.60
2024-02-29T14:29:05.878Z,9.50
2024-02-29T14:34:27.551Z,9.30
2024-02-29T14:39:49.821Z,9.50
2024-02-29T14:45:12.197Z,9.50
2024-02-29T14:50:34.304Z,9.40
2024-02-29T14:55:59.068Z,9.20
2024-02-29T15:01:23.762Z,8.90
2024-02-29T15:06:48.185Z,9.10
2024-02-29T15:12:18.057Z,8.80
2024-02-29T15:17:42.301Z,8.60
2024-02-29T15:23:04.234Z,8.50
2024-02-29T15:28:29.326Z,8.40
2024-02-29T15:33:54.114Z,8.20
2024-02-29T15:39:16.824Z,8.30
2024-02-29T15:44:38.602Z,8.30
2024-02-29T15:50:00.554Z,8.00
2024-02-29T15:55:24.214Z,7.90
2024-02-29T16:00:46.319Z,7.70
2024-02-29T16:06:13.040Z,7.60
2024-02-29T16:11:34.952Z,7.20
2024-02-29T16:17:01.552Z,7.00
2024-02-29T16:22:26.362Z,6.90
2024-02-29T16:27:52.870Z,6.80
2024-02-29T16:33:14.862Z,6.60
2024-02-29T16:38:38.715Z,6.40
2024-02-29T16:44:01.051Z,6.30
2024-02-29T16:49:22.997Z,6.00
2024-02-29T16:54:44.882Z,6.00
2024-02-29T17:00:10.018Z,6.00
2024-02-29T17:05:32.850Z,6.00
2024-02-29T17:10:57.761Z,5.90
2024-02-29T17:16:27.351Z,5.80
2024-02-29T17:21:49.340Z,5.70
2024-02-29T17:27:16.681Z,5.80
2024-02-29T17:32:39.858Z,5.80
2024-02-29T17:38:02.764Z,5.90
2024-02-29T17:43:24.839Z,5.70
2024-02-29T17:48:50.053Z,5.60
2024-02-29T17:54:12.312Z,5.60
2024-02-29T17:59:36.081Z,5.60
2024-02-29T18:05:01.237Z,5.50
2024-02-29T18:10:23.566Z,5.50
2024-02-29T18:15:45.582Z,5.40
2024-02-29T18:21:10.214Z,5.50
2024-02-29T18:26:34.548Z,5.30
2024-02-29T18:32:01.436Z,5.30
2024-02-29T18:37:31.937Z,5.30
2024-02-29T18:42:56.315Z,5.30
2024-02-29T18:48:18.777Z,5.10
2024-02-29T18:53:50.179Z,5.10
2024-02-29T18:59:14.226Z,5.00
2024-02-29T19:04:36.478Z,4.80
2024-02-29T19:10:21.996Z,4.50
2024-02-29T19:15:44.372Z,4.50
2024-02-29T19:21:08.949Z,4.40
2024-02-29T19:26:33.404Z,4.20
2024-02-29T19:32:00.420Z,4.10
2024-02-29T19:37:22.389Z,4.00
2024-02-29T19:43:10.968Z,3.90
2024-02-29T19:48:33.136Z,3.80
2024-02-29T19:53:57.365Z,3.60
2024-02-29T19:59:19.580Z,3.50
2024-02-29T20:04:41.755Z,3.50
2024-02-29T20:10:04.081Z,3.50
2024-02-29T20:15:26.156Z,3.60
2024-02-29T20:20:47.959Z,3.50
2024-02-29T20:26:16.268Z,3.50
2024-02-29T20:31:38.334Z,3.40
2024-02-29T20:37:03.242Z,3.40
2024-02-29T20:42:25.382Z,3.40
2024-02-29T20:47:49.659Z,3.40
2024-02-29T20:53:13.818Z,3.30
2024-02-29T20:58:39.299Z,3.20
2024-02-29T21:04:01.469Z,3.10
2024-02-29T21:09:23.762Z,3.10
2024-02-29T21:14:45.620Z,3.00
2024-02-29T21:20:08.317Z,2.90
2024-02-29T21:25:30.701Z,2.80
2024-02-29T21:30:52.961Z,2.70
2024-02-29T21:36:17.137Z,2.70
2024-02-29T21:41:39.103Z,2.60
2024-02-29T21:47:04.713Z,2.50
2024-02-29T21:52:29.210Z,2.50
2024-02-29T21:57:55.783Z,2.40
2024-02-29T22:03:22.972Z,2.30
2024-02-29T22:08:47.763Z,2.30
2024-02-29T22:14:09.562Z,2.30
2024-02-29T22:19:31.930Z,2.30
2024-02-29T22:24:55.435Z,2.40
2024-02-29T22:30:18.184Z,2.40
2024-02-29T22:35:40.194Z,2.40
2024-02-29T22:41:02.681Z,2.50
2024-02-29T22:46:24.986Z,2.60
2024-02-29T22:51:46.945Z,2.60
2024-02-29T22:57:09.206Z,2.80
2024-02-29T23:02:31.393Z,2.80
2024-02-29T23:07:53.685Z,2.80
2024-02-29T23:13:15.945Z,2.70
2024-02-29T23:18:38.001Z,2.70
2024-02-29T23:24:00.057Z,2.70
2024-02-29T23:29:21.983Z,2.60
2024-02-29T23:34:43.719Z,2.60
2024-02-29T23:40:06.514Z,2.60
2024-02-29T23:45:28.932Z,2.60
2024-02-29T23:50:50.999Z,2.70
2024-02-29T23:56:12.910Z,2.70
